sensor_id;sensor_type;location;lat;lon;timestamp;pressure;altitude;pressure_sealevel;temperature;humidity
49311;BME280;35177;45.900;5.946;2023-05-22T00:00:29;97376.66;;;13.75;87.19
49311;BME280;35177;45.900;5.946;2023-05-22T00:02:56;97380.44;;;13.93;85.92
49311;BME280;35177;45.900;5.946;2023-05-22T00:05:22;97379.53;;;14.15;86.36
49311;BME280;35177;45.900;5.946;2023-05-22T00:07:48;97377.09;;;13.91;85.38
49311;BME280;35177;45.900;5.946;2023-05-22T00:10:13;97385.06;;;13.91;87.52
49311;BME280;35177;45.900;5.946;2023-05-22T00:12:39;97380.88;;;13.77;86.57
49311;BME280;35177;45.900;5.946;2023-05-22T00:15:05;97384.84;;;13.83;86.85
49311;BME280;35177;45.900;5.946;2023-05-22T00:17:30;97380.59;;;13.80;86.62
49311;BME280;35177;45.900;5.946;2023-05-22T00:19:56;97379.75;;;13.91;87.09
49311;BME280;35177;45.900;5.946;2023-05-22T00:22:29;97383.13;;;13.93;85.91
49311;BME280;35177;45.900;5.946;2023-05-22T00:24:56;97384.25;;;13.68;86.57
49311;BME280;35177;45.900;5.946;2023-05-22T00:27:22;97384.53;;;13.65;86.18
49311;BME280;35177;45.900;5.946;2023-05-22T00:29:47;97383.81;;;13.63;85.77
49311;BME280;35177;45.900;5.946;2023-05-22T00:32:13;97382.72;;;13.66;85.50
49311;BME280;35177;45.900;5.946;2023-05-22T00:34:38;97385.25;;;13.67;85.63
49311;BME280;35177;45.900;5.946;2023-05-22T00:37:04;97386.63;;;13.51;86.72
49311;BME280;35177;45.900;5.946;2023-05-22T00:39:30;97386.69;;;13.71;86.24
49311;BME280;35177;45.900;5.946;2023-05-22T00:41:55;97385.16;;;13.89;86.46
49311;BME280;35177;45.900;5.946;2023-05-22T00:44:21;97381.16;;;13.95;87.01
49311;BME280;35177;45.900;5.946;2023-05-22T00:46:47;97388.63;;;14.01;86.83
49311;BME280;35177;45.900;5.946;2023-05-22T00:49:12;97379.47;;;13.94;85.59
49311;BME280;35177;45.900;5.946;2023-05-22T00:51:38;97391.38;;;13.79;85.57
49311;BME280;35177;45.900;5.946;2023-05-22T00:54:04;97395.84;;;13.36;85.71
49311;BME280;35177;45.900;5.946;2023-05-22T00:56:30;97394.88;;;13.37;84.02
49311;BME280;35177;45.900;5.946;2023-05-22T00:58:57;97390.97;;;13.52;84.17
49311;BME280;35177;45.900;5.946;2023-05-22T01:01:23;97390.22;;;13.50;83.15
49311;BME280;35177;45.900;5.946;2023-05-22T01:03:51;97394.84;;;13.59;84.02
49311;BME280;35177;45.900;5.946;2023-05-22T01:06:18;97396.22;;;12.87;81.33
49311;BME280;35177;45.900;5.946;2023-05-22T01:08:46;97388.59;;;12.93;81.71
49311;BME280;35177;45.900;5.946;2023-05-22T01:11:27;97392.56;;;12.88;83.07
49311;BME280;35177;45.900;5.946;2023-05-22T01:14:04;97395.31;;;12.64;83.47
49311;BME280;35177;45.900;5.946;2023-05-22T01:20:23;97391.41;;;12.35;86.22
49311;BME280;35177;45.900;5.946;2023-05-22T01:26:18;97395.56;;;12.61;82.97
49311;BME280;35177;45.900;5.946;2023-05-22T01:29:07;97396.19;;;12.76;81.25
49311;BME280;35177;45.900;5.946;2023-05-22T01:31:39;97397.75;;;12.78;80.09
49311;BME280;35177;45.900;5.946;2023-05-22T01:34:07;97401.63;;;12.74;84.83
49311;BME280;35177;45.900;5.946;2023-05-22T01:36:35;97394.59;;;12.51;82.38
49311;BME280;35177;45.900;5.946;2023-05-22T01:39:02;97402.09;;;12.68;81.92
49311;BME280;35177;45.900;5.946;2023-05-22T01:41:31;97395.31;;;12.64;82.28
49311;BME280;35177;45.900;5.946;2023-05-22T01:43:58;97393.00;;;12.48;82.93
49311;BME280;35177;45.900;5.946;2023-05-22T01:46:27;97394.00;;;12.70;81.65
49311;BME280;35177;45.900;5.946;2023-05-22T01:48:53;97401.63;;;12.74;79.60
49311;BME280;35177;45.900;5.946;2023-05-22T01:54:29;97398.66;;;12.44;80.36
49311;BME280;35177;45.900;5.946;2023-05-22T01:57:06;97404.47;;;12.38;80.56
49311;BME280;35177;45.900;5.946;2023-05-22T01:59:40;97409.25;;;12.22;84.29
49311;BME280;35177;45.900;5.946;2023-05-22T02:02:09;97399.56;;;12.10;84.93
49311;BME280;35177;45.900;5.946;2023-05-22T02:04:41;97394.13;;;12.11;84.39
49311;BME280;35177;45.900;5.946;2023-05-22T02:07:11;97396.78;;;12.11;82.75
49311;BME280;35177;45.900;5.946;2023-05-22T02:09:39;97404.38;;;12.16;85.34
49311;BME280;35177;45.900;5.946;2023-05-22T02:12:05;97399.59;;;12.21;84.10
49311;BME280;35177;45.900;5.946;2023-05-22T02:14:32;97400.81;;;11.69;86.30
49311;BME280;35177;45.900;5.946;2023-05-22T02:16:58;97398.88;;;11.71;83.21
49311;BME280;35177;45.900;5.946;2023-05-22T02:19:26;97403.25;;;11.72;82.88
49311;BME280;35177;45.900;5.946;2023-05-22T02:21:52;97403.16;;;11.85;82.26
49311;BME280;35177;45.900;5.946;2023-05-22T02:24:18;97399.75;;;11.59;83.09
49311;BME280;35177;45.900;5.946;2023-05-22T02:26:44;97400.84;;;11.57;79.29
49311;BME280;35177;45.900;5.946;2023-05-22T02:29:09;97394.22;;;11.39;80.87
49311;BME280;35177;45.900;5.946;2023-05-22T02:31:37;97403.81;;;11.52;80.25
49311;BME280;35177;45.900;5.946;2023-05-22T02:34:02;97397.75;;;10.65;80.95
49311;BME280;35177;45.900;5.946;2023-05-22T02:36:30;97408.97;;;10.81;84.08
49311;BME280;35177;45.900;5.946;2023-05-22T02:38:56;97409.19;;;11.27;82.33
49311;BME280;35177;45.900;5.946;2023-05-22T02:41:22;97401.91;;;11.54;79.89
49311;BME280;35177;45.900;5.946;2023-05-22T02:43:47;97393.13;;;11.54;84.50
49311;BME280;35177;45.900;5.946;2023-05-22T02:46:12;97397.78;;;11.50;86.87
49311;BME280;35177;45.900;5.946;2023-05-22T02:48:38;97395.75;;;11.54;87.66
49311;BME280;35177;45.900;5.946;2023-05-22T02:51:03;97400.44;;;11.50;88.08
49311;BME280;35177;45.900;5.946;2023-05-22T02:53:29;97408.97;;;11.30;88.99
49311;BME280;35177;45.900;5.946;2023-05-22T02:55:54;97404.63;;;11.29;90.41
49311;BME280;35177;45.900;5.946;2023-05-22T02:58:23;97402.22;;;11.26;88.60
49311;BME280;35177;45.900;5.946;2023-05-22T03:00:49;97399.09;;;11.45;87.83
49311;BME280;35177;45.900;5.946;2023-05-22T03:03:17;97393.22;;;11.52;87.96
49311;BME280;35177;45.900;5.946;2023-05-22T03:05:42;97395.44;;;11.22;87.24
49311;BME280;35177;45.900;5.946;2023-05-22T03:08:08;97403.78;;;10.80;83.19
49311;BME280;35177;45.900;5.946;2023-05-22T03:10:34;97406.53;;;10.66;84.92
49311;BME280;35177;45.900;5.946;2023-05-22T03:12:59;97407.56;;;10.76;82.26
49311;BME280;35177;45.900;5.946;2023-05-22T03:15:25;97397.63;;;10.67;82.28
49311;BME280;35177;45.900;5.946;2023-05-22T03:17:51;97391.91;;;10.98;82.38
49311;BME280;35177;45.900;5.946;2023-05-22T03:20:16;97390.78;;;11.26;82.26
49311;BME280;35177;45.900;5.946;2023-05-22T03:22:42;97394.78;;;11.31;80.69
49311;BME280;35177;45.900;5.946;2023-05-22T03:25:08;97398.41;;;11.17;81.32
49311;BME280;35177;45.900;5.946;2023-05-22T03:27:34;97395.59;;;11.08;84.99
49311;BME280;35177;45.900;5.946;2023-05-22T03:30:01;97394.63;;;11.09;86.33
49311;BME280;35177;45.900;5.946;2023-05-22T03:32:26;97395.81;;;10.92;85.96
49311;BME280;35177;45.900;5.946;2023-05-22T03:34:52;97396.66;;;10.93;84.21
49311;BME280;35177;45.900;5.946;2023-05-22T03:37:17;97390.63;;;10.78;82.53
49311;BME280;35177;45.900;5.946;2023-05-22T03:39:43;97395.19;;;10.76;80.46
49311;BME280;35177;45.900;5.946;2023-05-22T03:42:08;97399.22;;;10.82;81.73
49311;BME280;35177;45.900;5.946;2023-05-22T03:44:34;97404.00;;;10.26;84.09
49311;BME280;35177;45.900;5.946;2023-05-22T03:47:00;97409.69;;;10.20;84.61
49311;BME280;35177;45.900;5.946;2023-05-22T03:49:25;97410.16;;;10.00;83.48
49311;BME280;35177;45.900;5.946;2023-05-22T03:51:50;97406.63;;;9.87;84.42
49311;BME280;35177;45.900;5.946;2023-05-22T03:54:16;97397.81;;;10.13;86.68
49311;BME280;35177;45.900;5.946;2023-05-22T03:56:42;97405.47;;;10.30;86.94
49311;BME280;35177;45.900;5.946;2023-05-22T03:59:08;97408.88;;;10.58;91.02
49311;BME280;35177;45.900;5.946;2023-05-22T04:01:34;97409.72;;;10.71;89.40
49311;BME280;35177;45.900;5.946;2023-05-22T04:03:59;97408.53;;;10.87;89.73
49311;BME280;35177;45.900;5.946;2023-05-22T04:06:26;97402.81;;;10.81;87.62
49311;BME280;35177;45.900;5.946;2023-05-22T04:08:51;97415.97;;;10.70;87.50
49311;BME280;35177;45.900;5.946;2023-05-22T04:11:17;97415.22;;;10.68;87.50
49311;BME280;35177;45.900;5.946;2023-05-22T04:13:43;97415.84;;;10.46;84.98
49311;BME280;35177;45.900;5.946;2023-05-22T04:16:09;97419.47;;;10.06;85.15
49311;BME280;35177;45.900;5.946;2023-05-22T04:18:34;97416.78;;;9.93;87.34
49311;BME280;35177;45.900;5.946;2023-05-22T04:21:00;97425.81;;;10.42;87.03
49311;BME280;35177;45.900;5.946;2023-05-22T04:23:27;97427.38;;;10.32;86.81
49311;BME280;35177;45.900;5.946;2023-05-22T04:25:52;97434.69;;;10.41;86.23
49311;BME280;35177;45.900;5.946;2023-05-22T04:28:18;97430.91;;;10.71;85.00
49311;BME280;35177;45.900;5.946;2023-05-22T04:30:47;97429.38;;;11.04;83.28
49311;BME280;35177;45.900;5.946;2023-05-22T04:33:13;97421.97;;;11.46;81.79
49311;BME280;35177;45.900;5.946;2023-05-22T04:35:38;97420.72;;;11.75;81.39
49311;BME280;35177;45.900;5.946;2023-05-22T04:38:05;97421.63;;;12.10;84.56
49311;BME280;35177;45.900;5.946;2023-05-22T04:40:30;97431.56;;;11.59;85.80
49311;BME280;35177;45.900;5.946;2023-05-22T04:42:58;97437.72;;;11.60;84.69
49311;BME280;35177;45.900;5.946;2023-05-22T04:45:24;97436.31;;;11.79;82.54
49311;BME280;35177;45.900;5.946;2023-05-22T04:47:51;97433.94;;;11.51;83.91
49311;BME280;35177;45.900;5.946;2023-05-22T04:50:19;97438.97;;;11.67;85.72
49311;BME280;35177;45.900;5.946;2023-05-22T04:52:45;97437.59;;;11.74;88.58
49311;BME280;35177;45.900;5.946;2023-05-22T04:55:12;97426.03;;;11.75;91.04
49311;BME280;35177;45.900;5.946;2023-05-22T04:57:40;97432.75;;;11.92;91.12
49311;BME280;35177;45.900;5.946;2023-05-22T05:00:09;97428.06;;;11.95;91.36
49311;BME280;35177;45.900;5.946;2023-05-22T05:02:35;97436.22;;;12.16;91.03
49311;BME280;35177;45.900;5.946;2023-05-22T05:05:00;97439.69;;;12.40;90.64
49311;BME280;35177;45.900;5.946;2023-05-22T05:07:26;97425.75;;;12.71;89.20
49311;BME280;35177;45.900;5.946;2023-05-22T05:09:52;97432.34;;;13.11;87.53
49311;BME280;35177;45.900;5.946;2023-05-22T05:12:17;97433.03;;;12.91;87.63
49311;BME280;35177;45.900;5.946;2023-05-22T05:14:43;97431.31;;;12.90;87.63
49311;BME280;35177;45.900;5.946;2023-05-22T05:17:08;97437.56;;;12.56;88.40
49311;BME280;35177;45.900;5.946;2023-05-22T05:19:34;97431.53;;;12.54;88.63
49311;BME280;35177;45.900;5.946;2023-05-22T05:21:59;97434.13;;;12.43;89.43
49311;BME280;35177;45.900;5.946;2023-05-22T05:24:25;97434.06;;;12.21;89.94
49311;BME280;35177;45.900;5.946;2023-05-22T05:26:51;97439.16;;;12.00;91.00
49311;BME280;35177;45.900;5.946;2023-05-22T05:29:17;97437.28;;;12.13;92.38
49311;BME280;35177;45.900;5.946;2023-05-22T05:31:42;97437.44;;;12.23;90.93
49311;BME280;35177;45.900;5.946;2023-05-22T05:34:08;97435.59;;;12.47;90.98
49311;BME280;35177;45.900;5.946;2023-05-22T05:36:34;97430.66;;;12.53;90.83
49311;BME280;35177;45.900;5.946;2023-05-22T05:38:59;97433.03;;;13.02;89.26
49311;BME280;35177;45.900;5.946;2023-05-22T05:41:25;97429.44;;;13.26;87.96
49311;BME280;35177;45.900;5.946;2023-05-22T05:43:51;97437.63;;;13.34;87.71
49311;BME280;35177;45.900;5.946;2023-05-22T05:46:17;97436.81;;;13.33;87.65
49311;BME280;35177;45.900;5.946;2023-05-22T05:48:43;97439.81;;;13.40;87.49
49311;BME280;35177;45.900;5.946;2023-05-22T05:51:09;97438.09;;;13.61;87.09
49311;BME280;35177;45.900;5.946;2023-05-22T05:53:34;97436.63;;;13.68;85.11
49311;BME280;35177;45.900;5.946;2023-05-22T05:56:01;97440.94;;;13.80;85.41
49311;BME280;35177;45.900;5.946;2023-05-22T05:58:27;97439.25;;;13.79;86.32
49311;BME280;35177;45.900;5.946;2023-05-22T06:00:53;97442.44;;;13.73;85.95
49311;BME280;35177;45.900;5.946;2023-05-22T06:03:18;97442.81;;;14.00;85.02
49311;BME280;35177;45.900;5.946;2023-05-22T06:05:44;97446.19;;;14.02;84.81
49311;BME280;35177;45.900;5.946;2023-05-22T06:08:12;97446.34;;;13.89;86.13
49311;BME280;35177;45.900;5.946;2023-05-22T06:10:38;97440.44;;;14.18;85.28
49311;BME280;35177;45.900;5.946;2023-05-22T06:13:04;97442.72;;;14.22;85.48
49311;BME280;35177;45.900;5.946;2023-05-22T06:15:29;97444.47;;;14.44;84.26
49311;BME280;35177;45.900;5.946;2023-05-22T06:17:55;97448.00;;;14.44;83.41
49311;BME280;35177;45.900;5.946;2023-05-22T06:20:21;97433.75;;;14.55;83.92
49311;BME280;35177;45.900;5.946;2023-05-22T06:22:49;97436.38;;;14.87;83.08
49311;BME280;35177;45.900;5.946;2023-05-22T06:25:15;97444.00;;;15.01;82.62
49311;BME280;35177;45.900;5.946;2023-05-22T06:27:40;97443.66;;;15.15;81.84
49311;BME280;35177;45.900;5.946;2023-05-22T06:30:07;97443.84;;;15.23;81.73
49311;BME280;35177;45.900;5.946;2023-05-22T06:32:33;97440.47;;;15.21;81.48
49311;BME280;35177;45.900;5.946;2023-05-22T06:34:58;97445.34;;;15.16;81.87
49311;BME280;35177;45.900;5.946;2023-05-22T06:37:24;97443.75;;;15.34;81.44
49311;BME280;35177;45.900;5.946;2023-05-22T06:39:49;97441.97;;;15.14;81.92
49311;BME280;35177;45.900;5.946;2023-05-22T06:42:15;97450.56;;;14.97;83.62
49311;BME280;35177;45.900;5.946;2023-05-22T06:44:40;97440.09;;;15.35;81.37
49311;BME280;35177;45.900;5.946;2023-05-22T06:47:07;97435.03;;;15.32;81.90
49311;BME280;35177;45.900;5.946;2023-05-22T06:49:32;97447.88;;;15.17;82.66
49311;BME280;35177;45.900;5.946;2023-05-22T06:51:58;97445.22;;;15.48;80.05
49311;BME280;35177;45.900;5.946;2023-05-22T06:54:23;97446.06;;;15.48;80.29
49311;BME280;35177;45.900;5.946;2023-05-22T06:56:53;97449.34;;;15.52;80.67
49311;BME280;35177;45.900;5.946;2023-05-22T06:59:19;97451.50;;;15.77;79.64
49311;BME280;35177;45.900;5.946;2023-05-22T07:01:44;97437.91;;;15.99;78.90
49311;BME280;35177;45.900;5.946;2023-05-22T07:04:10;97446.72;;;15.80;79.11
49311;BME280;35177;45.900;5.946;2023-05-22T07:06:37;97451.78;;;15.74;77.50
49311;BME280;35177;45.900;5.946;2023-05-22T07:09:07;97453.81;;;16.01;76.49
49311;BME280;35177;45.900;5.946;2023-05-22T07:11:33;97448.19;;;16.13;76.65
49311;BME280;35177;45.900;5.946;2023-05-22T07:14:03;97451.41;;;16.36;77.21
49311;BME280;35177;45.900;5.946;2023-05-22T07:16:29;97452.13;;;16.38;75.49
49311;BME280;35177;45.900;5.946;2023-05-22T07:18:55;97448.47;;;16.39;75.39
49311;BME280;35177;45.900;5.946;2023-05-22T07:21:21;97441.44;;;16.38;75.27
49311;BME280;35177;45.900;5.946;2023-05-22T07:23:50;97436.09;;;16.38;75.39
49311;BME280;35177;45.900;5.946;2023-05-22T07:26:16;97438.38;;;16.42;75.16
49311;BME280;35177;45.900;5.946;2023-05-22T07:28:41;97436.81;;;16.59;73.50
49311;BME280;35177;45.900;5.946;2023-05-22T07:31:07;97440.91;;;16.63;73.78
49311;BME280;35177;45.900;5.946;2023-05-22T07:33:32;97435.13;;;16.77;74.11
49311;BME280;35177;45.900;5.946;2023-05-22T07:35:57;97433.59;;;16.75;73.26
49311;BME280;35177;45.900;5.946;2023-05-22T07:38:23;97434.81;;;16.90;73.03
49311;BME280;35177;45.900;5.946;2023-05-22T07:40:49;97438.31;;;17.00;74.21
49311;BME280;35177;45.900;5.946;2023-05-22T07:43:14;97439.94;;;17.20;74.86
49311;BME280;35177;45.900;5.946;2023-05-22T07:45:40;97435.88;;;17.16;73.66
49311;BME280;35177;45.900;5.946;2023-05-22T07:48:06;97434.59;;;17.10;72.88
49311;BME280;35177;45.900;5.946;2023-05-22T07:50:31;97430.09;;;17.11;73.08
49311;BME280;35177;45.900;5.946;2023-05-22T07:52:57;97438.94;;;17.21;72.64
49311;BME280;35177;45.900;5.946;2023-05-22T07:55:23;97437.03;;;17.41;74.11
49311;BME280;35177;45.900;5.946;2023-05-22T07:57:49;97437.28;;;17.57;72.63
49311;BME280;35177;45.900;5.946;2023-05-22T08:00:15;97430.19;;;17.65;71.42
49311;BME280;35177;45.900;5.946;2023-05-22T08:02:41;97433.13;;;17.72;71.44
49311;BME280;35177;45.900;5.946;2023-05-22T08:05:07;97428.47;;;17.74;71.88
49311;BME280;35177;45.900;5.946;2023-05-22T08:07:33;97426.75;;;17.73;71.83
49311;BME280;35177;45.900;5.946;2023-05-22T08:10:01;97425.56;;;17.85;70.88
49311;BME280;35177;45.900;5.946;2023-05-22T08:12:27;97430.34;;;17.91;72.08
49311;BME280;35177;45.900;5.946;2023-05-22T08:14:52;97419.69;;;17.99;69.66
49311;BME280;35177;45.900;5.946;2023-05-22T08:17:18;97426.28;;;18.04;70.14
49311;BME280;35177;45.900;5.946;2023-05-22T08:19:43;97412.72;;;18.24;70.77
49311;BME280;35177;45.900;5.946;2023-05-22T08:22:09;97418.47;;;18.29;69.98
49311;BME280;35177;45.900;5.946;2023-05-22T08:24:34;97409.63;;;18.28;69.85
49311;BME280;35177;45.900;5.946;2023-05-22T08:27:00;97404.63;;;18.33;68.84
49311;BME280;35177;45.900;5.946;2023-05-22T08:29:25;97410.22;;;18.40;69.01
49311;BME280;35177;45.900;5.946;2023-05-22T08:31:51;97412.44;;;18.44;69.57
49311;BME280;35177;45.900;5.946;2023-05-22T08:34:18;97407.09;;;18.44;68.60
49311;BME280;35177;45.900;5.946;2023-05-22T08:36:43;97402.34;;;18.38;69.05
49311;BME280;35177;45.900;5.946;2023-05-22T08:39:09;97397.78;;;18.48;69.22
49311;BME280;35177;45.900;5.946;2023-05-22T08:41:35;97395.06;;;18.66;68.50
49311;BME280;35177;45.900;5.946;2023-05-22T08:44:00;97401.38;;;18.83;71.70
49311;BME280;35177;45.900;5.946;2023-05-22T08:46:27;97397.16;;;19.06;68.74
49311;BME280;35177;45.900;5.946;2023-05-22T08:48:56;97390.81;;;19.07;69.07
49311;BME280;35177;45.900;5.946;2023-05-22T08:51:26;97392.63;;;19.32;68.93
49311;BME280;35177;45.900;5.946;2023-05-22T08:53:55;97382.47;;;19.44;69.16
49311;BME280;35177;45.900;5.946;2023-05-22T08:56:20;97388.34;;;19.47;69.11
49311;BME280;35177;45.900;5.946;2023-05-22T08:58:46;97383.88;;;19.56;68.22
49311;BME280;35177;45.900;5.946;2023-05-22T09:01:12;97385.78;;;19.79;67.33
49311;BME280;35177;45.900;5.946;2023-05-22T09:03:38;97372.56;;;19.94;65.92
49311;BME280;35177;45.900;5.946;2023-05-22T09:06:04;97369.75;;;20.12;66.47
49311;BME280;35177;45.900;5.946;2023-05-22T09:08:33;97370.97;;;20.41;65.46
49311;BME280;35177;45.900;5.946;2023-05-22T09:10:59;97369.13;;;20.50;64.77
49311;BME280;35177;45.900;5.946;2023-05-22T09:13:25;97363.41;;;20.61;63.64
49311;BME280;35177;45.900;5.946;2023-05-22T09:15:51;97361.50;;;20.94;64.15
49311;BME280;35177;45.900;5.946;2023-05-22T09:18:17;97363.81;;;21.29;63.33
49311;BME280;35177;45.900;5.946;2023-05-22T09:20:43;97369.09;;;21.53;61.79
49311;BME280;35177;45.900;5.946;2023-05-22T09:23:12;97362.16;;;21.59;62.39
49311;BME280;35177;45.900;5.946;2023-05-22T09:25:40;97361.59;;;21.71;63.96
49311;BME280;35177;45.900;5.946;2023-05-22T09:28:07;97366.06;;;22.40;59.94
49311;BME280;35177;45.900;5.946;2023-05-22T09:30:35;97363.31;;;22.71;58.18
49311;BME280;35177;45.900;5.946;2023-05-22T09:33:02;97355.09;;;23.02;57.57
49311;BME280;35177;45.900;5.946;2023-05-22T09:35:30;97355.66;;;23.70;57.05
49311;BME280;35177;45.900;5.946;2023-05-22T09:37:57;97361.97;;;23.19;57.80
49311;BME280;35177;45.900;5.946;2023-05-22T09:40:23;97352.03;;;23.34;58.44
49311;BME280;35177;45.900;5.946;2023-05-22T09:42:48;97349.94;;;23.44;56.16
49311;BME280;35177;45.900;5.946;2023-05-22T09:45:18;97352.13;;;24.05;53.14
49311;BME280;35177;45.900;5.946;2023-05-22T09:47:47;97351.22;;;23.98;53.15
49311;BME280;35177;45.900;5.946;2023-05-22T09:50:13;97346.88;;;24.40;52.21
49311;BME280;35177;45.900;5.946;2023-05-22T09:52:40;97345.88;;;24.83;50.06
49311;BME280;35177;45.900;5.946;2023-05-22T09:55:09;97340.84;;;24.80;51.08
49311;BME280;35177;45.900;5.946;2023-05-22T09:57:44;97340.41;;;24.76;51.01
49311;BME280;35177;45.900;5.946;2023-05-22T10:00:11;97340.69;;;24.88;48.32
49311;BME280;35177;45.900;5.946;2023-05-22T10:02:42;97343.84;;;25.53;49.01
49311;BME280;35177;45.900;5.946;2023-05-22T10:05:09;97344.50;;;25.28;47.71
49311;BME280;35177;45.900;5.946;2023-05-22T10:07:42;97336.53;;;25.47;46.79
49311;BME280;35177;45.900;5.946;2023-05-22T10:10:11;97342.75;;;25.89;46.73
49311;BME280;35177;45.900;5.946;2023-05-22T10:12:46;97330.66;;;25.98;46.26
49311;BME280;35177;45.900;5.946;2023-05-22T10:15:12;97329.88;;;26.04;45.03
49311;BME280;35177;45.900;5.946;2023-05-22T10:17:38;97327.03;;;26.45;44.49
49311;BME280;35177;45.900;5.946;2023-05-22T10:20:07;97324.13;;;26.72;43.37
49311;BME280;35177;45.900;5.946;2023-05-22T10:22:36;97328.31;;;26.62;44.30
49311;BME280;35177;45.900;5.946;2023-05-22T10:25:02;97320.19;;;26.88;42.32
49311;BME280;35177;45.900;5.946;2023-05-22T10:27:28;97323.28;;;26.65;42.01
49311;BME280;35177;45.900;5.946;2023-05-22T10:30:12;97314.13;;;26.79;41.77
49311;BME280;35177;45.900;5.946;2023-05-22T10:33:16;97312.03;;;26.68;43.51
49311;BME280;35177;45.900;5.946;2023-05-22T10:35:47;97309.69;;;27.31;41.63
49311;BME280;35177;45.900;5.946;2023-05-22T10:40:50;97300.91;;;27.99;38.44
49311;BME280;35177;45.900;5.946;2023-05-22T10:43:16;97298.28;;;27.73;36.92
49311;BME280;35177;45.900;5.946;2023-05-22T10:45:45;97306.03;;;27.63;42.42
49311;BME280;35177;45.900;5.946;2023-05-22T10:48:11;97302.16;;;27.90;40.95
49311;BME280;35177;45.900;5.946;2023-05-22T10:50:37;97301.03;;;27.60;39.33
49311;BME280;35177;45.900;5.946;2023-05-22T10:53:25;97295.69;;;28.29;38.14
49311;BME280;35177;45.900;5.946;2023-05-22T10:55:52;97290.47;;;27.83;38.90
49311;BME280;35177;45.900;5.946;2023-05-22T10:58:25;97282.81;;;27.67;38.05
49311;BME280;35177;45.900;5.946;2023-05-22T11:01:07;97288.13;;;27.42;36.77
49311;BME280;35177;45.900;5.946;2023-05-22T11:03:53;97289.47;;;27.01;40.67
49311;BME280;35177;45.900;5.946;2023-05-22T11:07:13;97283.03;;;26.62;41.40
49311;BME280;35177;45.900;5.946;2023-05-22T11:09:31;97278.63;;;26.68;42.33
49311;BME280;35177;45.900;5.946;2023-05-22T11:12:26;97279.91;;;26.78;43.55
49311;BME280;35177;45.900;5.946;2023-05-22T11:14:57;97274.03;;;26.36;44.28
49311;BME280;35177;45.900;5.946;2023-05-22T11:20:11;97268.25;;;27.55;41.45
49311;BME280;35177;45.900;5.946;2023-05-22T11:22:40;97264.66;;;28.37;35.59
49311;BME280;35177;45.900;5.946;2023-05-22T11:25:08;97272.34;;;28.15;39.93
49311;BME280;35177;45.900;5.946;2023-05-22T11:27:35;97266.16;;;28.57;36.54
49311;BME280;35177;45.900;5.946;2023-05-22T11:30:01;97267.88;;;28.52;36.66
49311;BME280;35177;45.900;5.946;2023-05-22T11:32:27;97260.91;;;27.93;38.59
49311;BME280;35177;45.900;5.946;2023-05-22T11:34:54;97257.19;;;27.30;38.10
49311;BME280;35177;45.900;5.946;2023-05-22T11:37:21;97254.28;;;27.25;37.01
49311;BME280;35177;45.900;5.946;2023-05-22T11:39:56;97254.19;;;26.94;39.19
49311;BME280;35177;45.900;5.946;2023-05-22T11:42:22;97256.72;;;26.76;39.64
49311;BME280;35177;45.900;5.946;2023-05-22T11:44:48;97262.53;;;26.53;41.90
49311;BME280;35177;45.900;5.946;2023-05-22T11:47:14;97254.19;;;26.61;39.14
49311;BME280;35177;45.900;5.946;2023-05-22T11:49:40;97245.63;;;26.58;38.56
49311;BME280;35177;45.900;5.946;2023-05-22T11:52:07;97255.22;;;26.28;37.51
49311;BME280;35177;45.900;5.946;2023-05-22T11:54:32;97250.41;;;26.10;40.24
49311;BME280;35177;45.900;5.946;2023-05-22T11:56:58;97252.00;;;25.85;42.88
49311;BME280;35177;45.900;5.946;2023-05-22T11:59:23;97255.84;;;25.49;40.87
49311;BME280;35177;45.900;5.946;2023-05-22T12:01:50;97255.84;;;25.49;41.84
49311;BME280;35177;45.900;5.946;2023-05-22T12:04:15;97253.69;;;25.32;44.04
49311;BME280;35177;45.900;5.946;2023-05-22T12:06:41;97252.22;;;24.95;44.36
49311;BME280;35177;45.900;5.946;2023-05-22T12:09:06;97257.22;;;24.92;45.50
49311;BME280;35177;45.900;5.946;2023-05-22T12:11:36;97254.75;;;24.97;42.56
49311;BME280;35177;45.900;5.946;2023-05-22T12:14:02;97251.41;;;24.95;43.61
49311;BME280;35177;45.900;5.946;2023-05-22T12:16:33;97248.06;;;24.93;43.77
49311;BME280;35177;45.900;5.946;2023-05-22T12:19:04;97249.47;;;25.23;45.54
49311;BME280;35177;45.900;5.946;2023-05-22T12:21:30;97238.84;;;25.69;37.82
49311;BME280;35177;45.900;5.946;2023-05-22T12:23:56;97239.91;;;25.81;37.86
49311;BME280;35177;45.900;5.946;2023-05-22T12:26:22;97231.09;;;25.66;41.99
49311;BME280;35177;45.900;5.946;2023-05-22T12:28:51;97227.25;;;26.93;43.36
49311;BME280;35177;45.900;5.946;2023-05-22T12:31:21;97227.09;;;27.45;41.53
49311;BME280;35177;45.900;5.946;2023-05-22T12:33:47;97225.94;;;27.08;41.76
49311;BME280;35177;45.900;5.946;2023-05-22T12:36:12;97229.75;;;26.94;42.61
49311;BME280;35177;45.900;5.946;2023-05-22T12:38:39;97230.72;;;27.19;44.06
49311;BME280;35177;45.900;5.946;2023-05-22T12:41:04;97227.69;;;26.50;42.47
49311;BME280;35177;45.900;5.946;2023-05-22T12:43:30;97236.03;;;26.42;42.95
49311;BME280;35177;45.900;5.946;2023-05-22T12:57:31;97255.50;;;24.84;44.30
49311;BME280;35177;45.900;5.946;2023-05-22T12:59:56;97267.16;;;24.36;45.79
49311;BME280;35177;45.900;5.946;2023-05-22T13:02:22;97276.88;;;23.52;49.07
49311;BME280;35177;45.900;5.946;2023-05-22T13:04:47;97264.50;;;22.55;45.58
49311;BME280;35177;45.900;5.946;2023-05-22T13:07:12;97282.03;;;22.14;44.64
49311;BME280;35177;45.900;5.946;2023-05-22T13:09:38;97273.88;;;21.77;47.80
49311;BME280;35177;45.900;5.946;2023-05-22T13:12:04;97277.44;;;21.47;46.37
49311;BME280;35177;45.900;5.946;2023-05-22T13:14:29;97266.72;;;21.30;46.52
49311;BME280;35177;45.900;5.946;2023-05-22T13:16:55;97283.34;;;20.95;49.54
49311;BME280;35177;45.900;5.946;2023-05-22T13:19:20;97286.13;;;20.55;52.93
49311;BME280;35177;45.900;5.946;2023-05-22T13:21:46;97287.50;;;20.27;56.95
49311;BME280;35177;45.900;5.946;2023-05-22T13:24:11;97278.41;;;19.95;61.51
49311;BME280;35177;45.900;5.946;2023-05-22T13:26:37;97275.38;;;19.74;61.37